Time;durP1;ratioP1;P1;durP2;ratioP2;P2;SDS_P1;SDS_P2;PMS_P1;PMS_P2;Temp;Humidity;BMP_temperature;BMP_pressure;BME280_temperature;BME280_humidity;BME280_pressure;Samples;Min_cycle;Max_cycle;Signal;HPM_P1;HPM_P2
2022/12/10 00:00:12;;;;;;;55.53;22.33;;;-3.60;99.90;;;;;;6219502;23;20024;-84
2022/12/10 00:02:49;;;;;;;50.13;22.40;;;-3.50;99.90;;;;;;6244636;23;20016;-84
2022/12/10 00:05:40;;;;;;;51.43;22.30;;;-3.50;99.90;;;;;;6244634;23;20052;-84
2022/12/10 00:08:11;;;;;;;52.53;22.93;;;-2.10;99.90;;;;;;6203964;23;20074;-84
2022/12/10 00:10:55;;;;;;;59.60;24.90;;;-3.70;99.90;;;;;;6218462;23;20016;-84
2022/12/10 00:13:27;;;;;;;83.88;35.53;;;-2.90;99.90;;;;;;6219014;23;20054;-84
2022/12/10 00:15:53;;;;;;;77.80;30.03;;;-3.50;99.90;;;;;;6246044;23;20012;-83
2022/12/10 00:18:21;;;;;;;55.77;25.77;;;-3.70;99.90;;;;;;6223994;23;20066;-84
2022/12/10 00:21:04;;;;;;;56.33;24.07;;;-1.80;99.90;;;;;;6219519;23;20012;-84
2022/12/10 00:23:32;;;;;;;55.50;25.10;;;-3.40;99.90;;;;;;6246235;23;20051;-84
2022/12/10 00:26:34;;;;;;;54.83;24.30;;;-3.50;99.90;;;;;;6224478;23;20012;-84
2022/12/10 00:29:10;;;;;;;54.00;23.27;;;-3.70;99.90;;;;;;6157690;23;20020;-84
2022/12/10 00:31:41;;;;;;;52.63;22.40;;;-2.60;99.90;;;;;;6218370;23;20016;-84
2022/12/10 00:34:19;;;;;;;53.77;24.13;;;-2.90;99.90;;;;;;6219060;23;20031;-84
2022/12/10 00:37:03;;;;;;;58.03;25.20;;;-3.70;99.90;;;;;;6219589;23;20062;-84
2022/12/10 00:39:29;;;;;;;53.97;24.77;;;-4.30;99.90;;;;;;6217719;23;20026;-84
2022/12/10 00:41:55;;;;;;;55.07;23.33;;;-3.80;99.90;;;;;;6219254;23;20373;-84
2022/12/10 00:44:26;;;;;;;55.03;23.73;;;-3.90;99.90;;;;;;6245323;23;20016;-84
2022/12/10 00:46:58;;;;;;;54.30;23.90;;;-2.20;99.90;;;;;;6218017;23;20509;-84
2022/12/10 00:49:29;;;;;;;57.87;25.13;;;-3.80;99.90;;;;;;6218798;23;20012;-83
2022/12/10 00:52:07;;;;;;;52.50;24.13;;;-4.20;99.90;;;;;;6219085;23;20008;-84
2022/12/10 00:54:42;;;;;;;60.30;24.50;;;-2.80;99.90;;;;;;6217429;23;20016;-84
2022/12/10 00:57:08;;;;;;;57.37;24.13;;;-3.40;99.90;;;;;;6219105;23;20086;-84
2022/12/10 00:59:34;;;;;;;54.87;24.23;;;-3.90;99.90;;;;;;6244505;23;20051;-84
2022/12/10 01:02:12;;;;;;;56.77;24.13;;;-1.80;99.90;;;;;;6218835;23;20016;-84
2022/12/10 01:04:46;;;;;;;53.70;24.17;;;-4.10;99.90;;;;;;6218702;23;20063;-84
2022/12/10 01:07:38;;;;;;;53.43;23.37;;;-4.00;99.90;;;;;;6241024;23;20016;-84
2022/12/10 01:10:04;;;;;;;53.60;23.43;;;-3.80;99.90;;;;;;6218543;23;20051;-84
2022/12/10 01:12:32;;;;;;;58.43;24.97;;;-3.80;99.90;;;;;;6218848;23;20069;-84
2022/12/10 01:14:58;;;;;;;57.10;25.40;;;-3.80;99.90;;;;;;6218067;23;20016;-84
2022/12/10 01:20:14;;;;;;;58.77;26.63;;;-3.70;99.90;;;;;;6244334;22;20019;-84
2022/12/10 01:22:42;;;;;;;59.47;25.03;;;-3.20;99.90;;;;;;6217643;23;20062;-84
2022/12/10 01:25:20;;;;;;;57.57;24.87;;;-3.80;99.90;;;;;;6245750;23;20027;-84
2022/12/10 01:27:52;;;;;;;61.93;26.13;;;-3.80;99.90;;;;;;6217822;23;20043;-84
2022/12/10 01:30:26;;;;;;;59.30;25.10;;;-2.30;99.90;;;;;;6245329;23;20016;-84
2022/12/10 01:32:58;;;;;;;58.03;25.43;;;-3.50;99.90;;;;;;6245680;23;20019;-84
2022/12/10 01:35:27;;;;;;;60.10;25.87;;;-3.60;99.90;;;;;;6245108;23;20322;-84
2022/12/10 01:37:53;;;;;;;60.97;26.73;;;-2.90;99.90;;;;;;6243186;23;20328;-84
2022/12/10 01:40:25;;;;;;;62.73;27.00;;;-3.20;99.90;;;;;;6252987;23;20020;-84
2022/12/10 01:42:56;;;;;;;60.57;26.37;;;-3.50;99.90;;;;;;6218279;23;20012;-84
2022/12/10 01:45:34;;;;;;;58.20;25.40;;;-3.40;99.90;;;;;;6218160;23;20047;-84
2022/12/10 01:48:07;;;;;;;68.97;27.80;;;-1.90;99.90;;;;;;6217518;23;20017;-84
2022/12/10 01:50:32;;;;;;;67.17;27.57;;;-3.40;99.90;;;;;;6244483;23;20039;-84
2022/12/10 01:52:58;;;;;;;62.77;27.10;;;-1.40;99.90;;;;;;6245414;23;20436;-84
2022/12/10 01:55:45;;;;;;;66.23;26.90;;;-1.80;99.90;;;;;;6223268;23;20157;-84
2022/12/10 01:58:19;;;;;;;63.27;26.87;;;-1.30;99.90;;;;;;6218264;23;20008;-84
2022/12/10 02:00:59;;;;;;;66.38;27.67;;;-3.00;99.90;;;;;;6245822;23;20059;-84
2022/12/10 02:03:35;;;;;;;64.83;26.33;;;-3.00;99.90;;;;;;6249771;23;20016;-84
2022/12/10 02:06:27;;;;;;;67.77;28.20;;;-2.80;99.90;;;;;;6220158;23;20504;-84
2022/12/10 02:09:08;;;;;;;65.40;29.23;;;-2.80;99.90;;;;;;6247739;23;20090;-84
2022/12/10 02:11:57;;;;;;;61.43;28.00;;;-2.70;99.90;;;;;;6246823;23;20495;-84
2022/12/10 02:14:37;;;;;;;62.60;27.07;;;-2.60;99.90;;;;;;6220238;23;20016;-84
2022/12/10 02:17:33;;;;;;;64.00;28.27;;;-2.60;99.90;;;;;;6246551;23;20016;-84
2022/12/10 02:20:31;;;;;;;64.67;27.40;;;-2.60;99.90;;;;;;6220014;23;20066;-85
2022/12/10 02:23:26;;;;;;;70.03;28.70;;;-1.50;99.90;;;;;;6219308;23;20099;-84
2022/12/10 02:26:10;;;;;;;68.90;29.97;;;-2.20;99.90;;;;;;6246839;23;20117;-84
2022/12/10 02:28:51;;;;;;;;;;;-2.90;99.90;;;;;;6220881;23;20028;-84
2022/12/10 02:31:29;;;;;;;63.23;28.17;;;-3.10;99.90;;;;;;6246404;23;19919;-84
2022/12/10 02:34:09;;;;;;;70.00;29.30;;;-1.60;99.90;;;;;;6220144;23;20027;-84
2022/12/10 02:36:38;;;;;;;67.23;29.73;;;-2.40;99.90;;;;;;6220559;23;20016;-84
2022/12/10 02:39:14;;;;;;;67.40;29.07;;;-2.60;99.90;;;;;;6246329;23;20023;-84
2022/12/10 02:41:51;;;;;;;72.00;29.83;;;-2.80;99.90;;;;;;6220047;23;20012;-84
2022/12/10 02:44:25;;;;;;;71.23;30.47;;;-3.00;99.90;;;;;;6247027;23;20051;-84
2022/12/10 02:46:54;;;;;;;71.67;28.97;;;-3.00;99.90;;;;;;6246317;23;20023;-84
2022/12/10 02:49:55;;;;;;;70.43;29.37;;;-1.50;99.90;;;;;;6247005;23;20016;-84
2022/12/10 02:52:36;;;;;;;68.70;27.77;;;-2.80;99.90;;;;;;6218300;23;20019;-84
2022/12/10 02:55:20;;;;;;;69.23;28.77;;;-1.50;99.90;;;;;;6219808;23;20023;-84
2022/12/10 02:58:28;;;;;;;67.53;29.43;;;-2.60;99.90;;;;;;6245952;23;20036;-84
2022/12/10 03:01:06;;;;;;;71.17;29.83;;;-3.00;99.90;;;;;;6148901;23;20091;-84
2022/12/10 03:03:52;;;;;;;72.17;29.23;;;-3.00;99.90;;;;;;6242720;23;20016;-84
2022/12/10 03:06:25;;;;;;;71.53;29.23;;;-3.20;99.90;;;;;;6245201;23;20015;-84
2022/12/10 03:09:35;;;;;;;68.25;27.30;;;-3.20;99.90;;;;;;6246819;23;20087;-84
2022/12/10 03:12:42;;;;;;;68.50;28.73;;;-3.40;99.90;;;;;;6219463;23;20052;-84
2022/12/10 03:15:16;;;;;;;74.23;30.13;;;-3.30;99.90;;;;;;6218930;23;20020;-84
2022/12/10 03:17:53;;;;;;;73.67;29.43;;;-3.60;99.90;;;;;;6219547;23;20015;-84
2022/12/10 03:20:27;;;;;;;71.27;29.27;;;-3.50;99.90;;;;;;6245256;23;20043;-84
2022/12/10 03:23:10;;;;;;;80.30;31.27;;;-3.40;99.90;;;;;;6219958;23;20470;-84
2022/12/10 03:25:56;;;;;;;78.40;30.60;;;-1.80;99.90;;;;;;6219704;23;20436;-84
2022/12/10 03:28:40;;;;;;;82.50;32.27;;;-3.10;99.90;;;;;;6218474;23;20482;-84
2022/12/10 03:31:16;;;;;;;84.33;30.03;;;-3.40;99.90;;;;;;6248695;23;20175;-84
2022/12/10 03:33:52;;;;;;;82.63;31.53;;;-2.00;99.90;;;;;;6248343;23;20451;-84
2022/12/10 03:36:38;;;;;;;78.60;31.57;;;-2.00;99.90;;;;;;6218579;23;20016;-84
2022/12/10 03:39:04;;;;;;;77.63;29.83;;;-3.20;99.90;;;;;;6222143;23;20326;-84
2022/12/10 03:41:36;;;;;;;75.00;30.43;;;-2.80;99.90;;;;;;6220857;23;20012;-84
2022/12/10 03:44:08;;;;;;;82.27;32.07;;;-3.50;99.90;;;;;;6219737;23;20016;-84
2022/12/10 03:46:49;;;;;;;83.60;31.73;;;-2.20;99.90;;;;;;6220265;23;20024;-84
2022/12/10 03:49:15;;;;;;;81.40;32.70;;;-3.10;99.90;;;;;;6244988;23;20039;-84
2022/12/10 03:51:53;;;;;;;88.63;32.80;;;-3.10;99.90;;;;;;6219437;23;20440;-84
2022/12/10 03:54:19;;;;;;;83.17;32.43;;;-1.60;99.90;;;;;;6246223;23;20020;-84
2022/12/10 03:56:50;;;;;;;79.93;32.27;;;-3.30;99.90;;;;;;6218948;23;20505;-84
2022/12/10 03:59:28;;;;;;;85.37;33.70;;;-3.20;99.90;;;;;;6218946;23;20065;-84
2022/12/10 04:01:54;;;;;;;85.40;32.50;;;-3.40;99.90;;;;;;6246394;23;20055;-84
2022/12/10 04:04:26;;;;;;;86.80;34.47;;;-1.70;99.90;;;;;;6244611;23;20023;-84
2022/12/10 04:07:04;;;;;;;87.43;33.87;;;-2.20;99.90;;;;;;6219675;23;20016;-84
2022/12/10 04:09:38;;;;;;;91.20;34.17;;;-2.40;99.90;;;;;;6218044;23;20012;-84
2022/12/10 04:12:13;;;;;;;88.70;33.83;;;-3.50;99.90;;;;;;6246390;23;20340;-85
2022/12/10 04:17:33;;;;;;;90.33;35.03;;;-2.90;99.90;;;;;;6245504;23;20393;-84
2022/12/10 04:20:02;;;;;;;98.70;36.07;;;-2.90;99.90;;;;;;6246925;23;20012;-84
2022/12/10 04:28:34;;;;;;;91.33;34.77;;;-3.10;99.90;;;;;;6245566;23;20024;-84
2022/12/10 04:31:08;;;;;;;86.00;33.63;;;-2.20;99.90;;;;;;6218576;23;20031;-84
2022/12/10 04:33:44;;;;;;;100.07;36.27;;;-3.60;99.90;;;;;;6218945;23;20026;-85
2022/12/10 04:38:49;;;;;;;88.90;33.93;;;-3.40;99.90;;;;;;6266387;22;20329;-84
2022/12/10 04:41:36;;;;;;;98.20;35.47;;;-3.40;99.90;;;;;;6244952;23;20023;-84
2022/12/10 04:44:01;;;;;;;94.20;34.13;;;-4.10;99.90;;;;;;6218742;23;20016;-84
2022/12/10 04:46:39;;;;;;;91.27;34.47;;;-2.60;99.90;;;;;;6218323;23;20386;-84
2022/12/10 04:49:20;;;;;;;94.47;34.90;;;-3.40;99.90;;;;;;6218942;23;20020;-84
2022/12/10 04:52:04;;;;;;;96.07;35.63;;;-3.80;99.90;;;;;;6245160;23;20058;-84
2022/12/10 04:54:48;;;;;;;94.30;35.03;;;-2.60;99.90;;;;;;6245890;23;20070;-85
2022/12/10 04:57:35;;;;;;;94.63;35.97;;;-3.80;99.90;;;;;;6217844;23;20039;-84
2022/12/10 05:00:01;;;;;;;96.80;35.53;;;-3.50;99.90;;;;;;6218108;23;20060;-84
2022/12/10 05:02:32;;;;;;;100.77;35.93;;;-3.30;99.90;;;;;;6218991;23;20099;-84
2022/12/10 05:04:58;;;;;;;106.67;38.17;;;-3.70;99.90;;;;;;6217212;23;20020;-84
2022/12/10 05:07:29;;;;;;;101.47;37.00;;;-2.30;99.90;;;;;;6244260;23;20019;-84
2022/12/10 05:10:07;;;;;;;101.63;37.40;;;-4.00;99.90;;;;;;6223189;23;20027;-84
2022/12/10 05:12:58;;;;;;;106.57;36.13;;;-3.70;99.90;;;;;;6218951;23;20058;-84
2022/12/10 05:15:38;;;;;;;92.27;33.90;;;-4.20;99.90;;;;;;6217331;23;20024;-84
2022/12/10 05:18:23;;;;;;;110.90;38.40;;;-3.90;99.90;;;;;;6250089;23;20016;-84
2022/12/10 05:21:15;;;;;;;;;;;-2.70;99.90;;;;;;6245808;23;20018;-84
2022/12/10 05:23:54;;;;;;;110.97;38.43;;;-3.40;99.90;;;;;;6173019;23;19997;-84
2022/12/10 05:26:29;;;;;;;100.67;35.77;;;-3.90;99.90;;;;;;6244887;23;20040;-84
2022/12/10 05:29:06;;;;;;;108.63;38.10;;;-3.60;99.90;;;;;;6217193;23;20519;-84
2022/12/10 05:31:51;;;;;;;103.67;36.83;;;-2.20;99.90;;;;;;6218384;23;20027;-84
2022/12/10 05:34:19;;;;;;;106.20;39.13;;;-2.30;99.90;;;;;;6216786;23;20046;-84
2022/12/10 05:37:05;;;;;;;114.93;37.47;;;-3.70;99.90;;;;;;6218572;23;20016;-85
2022/12/10 05:39:39;;;;;;;116.10;39.77;;;-2.20;99.90;;;;;;6245222;23;20019;-85
2022/12/10 05:42:07;;;;;;;112.27;37.77;;;-2.20;99.90;;;;;;6218174;23;20336;-84
2022/12/10 05:44:41;;;;;;;115.10;38.50;;;-3.90;99.90;;;;;;6189592;23;20024;-85
2022/12/10 05:47:07;;;;;;;103.50;35.80;;;-2.50;99.90;;;;;;6233780;23;20020;-84
2022/12/10 05:49:39;;;;;;;112.70;37.10;;;-3.70;99.90;;;;;;6243426;23;20028;-84
2022/12/10 05:52:16;;;;;;;106.33;37.70;;;-3.90;99.90;;;;;;6218620;23;20471;-84
2022/12/10 05:54:57;;;;;;;110.50;35.77;;;-3.90;99.90;;;;;;6245611;23;20016;-84
2022/12/10 05:57:37;;;;;;;103.63;36.38;;;-4.40;99.90;;;;;;6217783;23;20020;-84
2022/12/10 06:00:09;;;;;;;113.27;36.97;;;-4.70;99.90;;;;;;6245448;23;20012;-85
2022/12/10 06:02:53;;;;;;;117.90;38.37;;;-3.50;99.90;;;;;;6244752;23;20012;-85
2022/12/10 06:05:19;;;;;;;118.30;38.20;;;-4.00;99.90;;;;;;6245088;23;20016;-85
2022/12/10 06:07:45;;;;;;;112.47;36.90;;;-3.80;99.90;;;;;;6192254;23;20024;-84
2022/12/10 06:10:23;;;;;;;112.40;37.87;;;-3.70;99.90;;;;;;6244261;23;20016;-84
2022/12/10 06:13:10;;;;;;;116.53;37.67;;;-3.40;99.90;;;;;;6245778;23;20043;-84
2022/12/10 06:16:23;;;;;;;109.20;36.20;;;-2.50;99.90;;;;;;6201568;23;20465;-85
2022/12/10 06:19:11;;;;;;;111.63;36.53;;;-3.20;99.90;;;;;;6214902;23;20105;-85
2022/12/10 06:24:22;;;;;;;119.03;37.20;;;-3.60;99.90;;;;;;6273173;22;20018;-84
2022/12/10 06:26:53;;;;;;;;;;;-3.50;99.90;;;;;;6249055;22;20016;-84
2022/12/10 06:29:25;;;;;;;103.72;35.58;;;-2.70;99.90;;;;;;6276019;22;19915;-85
2022/12/10 06:32:02;;;;;;;106.43;37.83;;;-2.30;99.90;;;;;;6222275;22;20129;-85
2022/12/10 06:37:29;;;;;;;112.67;36.47;;;-3.70;99.90;;;;;;6238890;23;20471;-85
2022/12/10 06:40:05;;;;;;;108.80;36.37;;;-3.80;99.90;;;;;;6245846;23;20325;-85
2022/12/10 06:42:46;;;;;;;115.03;37.37;;;-3.60;99.90;;;;;;6243629;23;20024;-84
2022/12/10 06:45:12;;;;;;;121.53;36.53;;;-2.50;99.90;;;;;;6217063;23;20042;-85
2022/12/10 06:47:53;;;;;;;107.83;35.20;;;-3.20;99.90;;;;;;6248041;23;20023;-85
2022/12/10 06:50:39;;;;;;;112.00;38.83;;;-4.10;99.90;;;;;;6218639;23;20047;-85
2022/12/10 06:53:05;;;;;;;105.20;35.93;;;-4.80;99.90;;;;;;6246208;23;20020;-85
2022/12/10 06:56:10;;;;;;;113.10;36.80;;;-3.30;99.90;;;;;;6209468;23;20515;-84
2022/12/10 06:58:45;;;;;;;114.83;37.37;;;-4.00;99.90;;;;;;6219784;23;20019;-85
2022/12/10 07:01:30;;;;;;;113.87;36.67;;;-3.40;99.90;;;;;;6247043;23;20016;-84
2022/12/10 07:04:42;;;;;;;118.83;36.53;;;-3.80;99.90;;;;;;6220115;23;20023;-85
2022/12/10 07:07:18;;;;;;;104.93;34.37;;;-4.80;99.90;;;;;;6219191;23;20023;-84
2022/12/10 07:09:56;;;;;;;112.77;36.17;;;-4.00;99.90;;;;;;6219800;23;20494;-84
2022/12/10 07:12:34;;;;;;;109.87;36.10;;;-4.20;99.90;;;;;;6245807;23;20016;-85
2022/12/10 07:15:11;;;;;;;120.10;39.23;;;-2.30;99.90;;;;;;6224730;23;20023;-84
2022/12/10 07:17:46;;;;;;;117.33;37.27;;;-2.70;99.90;;;;;;6269775;23;20016;-85
2022/12/10 07:20:11;;;;;;;111.43;35.73;;;-2.00;99.90;;;;;;6251595;23;20012;-84
2022/12/10 07:22:43;;;;;;;120.23;38.13;;;-2.60;99.90;;;;;;6221275;23;20093;-85
2022/12/10 07:25:12;;;;;;;112.90;37.40;;;-2.60;99.90;;;;;;6220023;23;20024;-85
2022/12/10 07:27:44;;;;;;;106.93;35.27;;;-2.40;99.90;;;;;;6220571;23;20027;-85
2022/12/10 07:30:10;;;;;;;116.00;37.40;;;-3.80;99.90;;;;;;6221114;23;20066;-85
2022/12/10 07:32:45;;;;;;;110.67;35.30;;;-3.80;99.90;;;;;;6249464;23;20017;-85
2022/12/10 08:10:55;;;;;;;122.00;37.80;;;-3.30;99.90;;;;;;6215697;23;20032;-87
2022/12/10 08:13:46;;;;;;;130.30;38.17;;;-2.30;99.90;;;;;;6217763;22;20016;-88
2022/12/10 08:16:42;;;;;;;107.77;37.10;;;-2.90;99.90;;;;;;6246227;23;20024;-89
2022/12/10 08:19:59;;;;;;;116.70;37.03;;;-4.10;99.90;;;;;;6207627;23;20020;-89
2022/12/10 08:23:19;;;;;;;116.53;38.57;;;-4.10;99.90;;;;;;6195493;23;20028;-88
2022/12/10 08:26:11;;;;;;;119.30;40.63;;;-3.00;99.90;;;;;;6252448;23;20101;-89
2022/12/10 08:29:01;;;;;;;114.53;38.67;;;-0.80;99.90;;;;;;6248066;23;20016;-88
2022/12/10 08:38:54;;;;;;;112.67;37.20;;;-2.60;99.90;;;;;;6219151;23;20024;-88
2022/12/10 08:42:16;;;;;;;116.60;39.10;;;-2.40;99.90;;;;;;6244727;23;20348;-88
2022/12/10 08:45:09;;;;;;;119.83;39.13;;;-2.40;99.90;;;;;;6244511;23;20431;-88
2022/12/10 08:47:47;;;;;;;111.87;39.13;;;-2.30;99.90;;;;;;6219068;23;20087;-89
2022/12/10 08:50:24;;;;;;;113.27;38.90;;;-3.20;99.90;;;;;;6219491;23;20020;-89
2022/12/10 08:53:09;;;;;;;105.80;37.70;;;-2.20;99.90;;;;;;6217421;23;20352;-88
2022/12/10 08:55:51;;;;;;;109.53;37.13;;;-1.50;99.90;;;;;;6219054;23;20028;-88
2022/12/10 08:58:28;;;;;;;99.80;36.93;;;-2.60;99.90;;;;;;6218140;23;20015;-88
2022/12/10 09:01:36;;;;;;;113.33;38.60;;;-2.40;99.90;;;;;;6245999;23;20020;-88
2022/12/10 09:04:04;;;;;;;103.83;37.17;;;-0.90;99.90;;;;;;6246214;23;20016;-86
2022/12/10 09:06:33;;;;;;;102.43;36.27;;;-1.50;99.90;;;;;;6217725;23;20016;-88
2022/12/10 09:09:07;;;;;;;106.93;36.37;;;-1.60;99.90;;;;;;6245901;23;20020;-87
2022/12/10 09:11:45;;;;;;;100.00;35.43;;;-2.00;99.90;;;;;;6218734;23;20074;-88
2022/12/10 09:14:25;;;;;;;103.17;35.83;;;-2.70;99.90;;;;;;6244300;23;20020;-87
2022/12/10 09:17:08;;;;;;;94.07;35.00;;;-1.20;99.90;;;;;;6245872;23;20012;-87
2022/12/10 09:19:48;;;;;;;97.22;34.42;;;-0.10;99.90;;;;;;6243028;23;20099;-87
2022/12/10 09:25:16;;;;;;;98.00;34.47;;;-2.40;99.90;;;;;;6262968;22;20019;-86
2022/12/10 09:27:54;;;;;;;92.23;34.20;;;-2.30;99.90;;;;;;6274002;22;20063;-87
2022/12/10 09:30:39;;;;;;;90.80;35.07;;;-0.40;99.90;;;;;;6247982;22;20020;-88
2022/12/10 09:34:00;;;;;;;;;;;;;;;;;;;;;
2022/12/10 09:36:54;;;;;;;102.37;36.97;;;-1.90;99.90;;;;;;6209857;22;20257;-87
2022/12/10 09:39:20;;;;;;;93.15;34.15;;;-2.00;99.90;;;;;;6275921;22;20012;-88
2022/12/10 09:45:35;;;;;;;93.10;35.30;;;-1.30;99.90;;;;;;6248326;22;20110;-88
2022/12/10 09:48:41;;;;;;;92.13;35.20;;;-2.00;99.90;;;;;;6274758;22;20023;-87
2022/12/10 09:52:04;;;;;;;94.73;34.80;;;-2.00;99.90;;;;;;6274873;22;20065;-88
2022/12/10 10:04:33;;;;;;;87.67;35.97;;;-1.60;99.90;;;;;;6119946;23;20106;-89
2022/12/10 10:10:45;;;;;;;84.40;34.17;;;-2.70;99.90;;;;;;6125046;23;20026;-90
2022/12/10 10:13:38;;;;;;;84.63;33.73;;;-0.20;99.90;;;;;;6137667;23;20805;-89
2022/12/10 10:16:23;;;;;;;89.43;35.53;;;-1.40;99.90;;;;;;6120058;23;20342;-89
2022/12/10 10:22:21;;;;;;;80.73;34.50;;;-1.10;99.90;;;;;;6100810;23;20026;-88
2022/12/10 10:24:47;;;;;;;89.07;35.20;;;-0.60;99.90;;;;;;6068825;23;20010;-88
2022/12/10 10:30:24;;;;;;;81.60;34.43;;;1.70;99.90;;;;;;6100515;23;20419;-89
2022/12/10 10:48:48;;;;;;;79.27;34.47;;;0.60;99.90;;;;;;6066484;23;20023;-89
2022/12/10 10:55:35;;;;;;;75.63;32.97;;;-1.00;99.90;;;;;;6154197;23;20116;-91
2022/12/10 10:58:26;;;;;;;71.83;33.27;;;-0.20;99.90;;;;;;6091502;23;20114;-88
2022/12/10 11:45:12;;;;;;;72.73;32.83;;;0.20;99.90;;;;;;6246406;22;20510;-88
2022/12/10 11:59:09;;;;;;;78.63;34.87;;;-0.20;99.90;;;;;;6246297;23;20091;-90
2022/12/10 13:10:17;;;;;;;;;;;;;;;;;;;;;
2022/12/10 13:20:17;;;;;;;79.60;32.87;;;-0.70;99.90;;;;;;6099105;23;20026;-89
2022/12/10 13:23:03;;;;;;;80.17;31.33;;;-1.20;99.90;;;;;;5989500;23;20028;-89
2022/12/10 15:39:21;;;;;;;;;;;;;;;;;;;;;
2022/12/10 15:43:04;;;;;;;;;;;;;;;;;;;;;
2022/12/10 15:51:21;;;;;;;;;;;;;;;;;;;;;
2022/12/10 21:40:45;;;;;;;135.03;27.00;;;-2.20;99.90;;;;;;6216407;23;20257;-86
2022/12/10 21:51:31;;;;;;;;;;;;;;;;;;;;;
2022/12/10 21:54:54;;;;;;;120.93;30.57;;;-1.00;99.90;;;;;;6066372;23;20116;-88
2022/12/10 21:57:32;;;;;;;106.60;25.10;;;-0.80;99.90;;;;;;6151189;23;20248;-89
2022/12/10 22:00:48;;;;;;;107.70;25.57;;;-1.70;99.90;;;;;;6185590;23;20460;-89
2022/12/10 22:03:23;;;;;;;102.60;23.30;;;-0.60;99.90;;;;;;6184256;23;20345;-89
2022/12/10 22:31:37;;;;;;;70.90;20.33;;;-0.20;99.90;;;;;;6184412;23;20063;-89
2022/12/10 22:34:12;;;;;;;75.43;20.07;;;-1.30;99.90;;;;;;6184667;23;20028;-89
2022/12/10 22:37:44;;;;;;;84.70;21.27;;;0.50;99.90;;;;;;6154235;23;20013;-89
2022/12/10 22:41:17;;;;;;;84.13;20.73;;;-1.40;99.90;;;;;;6036691;23;20042;-88
2022/12/10 22:44:16;;;;;;;80.40;22.00;;;-0.30;99.90;;;;;;6015627;23;20019;-89
2022/12/10 22:47:18;;;;;;;84.67;24.23;;;-2.30;99.90;;;;;;6159087;23;20106;-88
2022/12/10 22:50:04;;;;;;;81.90;24.07;;;-1.80;99.90;;;;;;6185000;23;20350;-89
2022/12/10 22:53:02;;;;;;;73.93;23.60;;;-2.70;99.90;;;;;;6159638;23;20024;-88
2022/12/10 23:15:33;;;;;;;96.20;22.03;;;-1.50;99.90;;;;;;6277048;22;20066;-89
2022/12/10 23:18:23;;;;;;;101.60;27.83;;;-1.80;99.90;;;;;;6182732;23;20017;-90
2022/12/10 23:21:16;;;;;;;107.67;26.13;;;-1.80;99.90;;;;;;6241606;22;20104;-90
2022/12/10 23:24:19;;;;;;;144.13;46.70;;;-1.50;99.90;;;;;;6275235;22;20102;-90
2022/12/10 23:27:51;;;;;;;;;;;;;;;;;;;;;
2022/12/10 23:31:15;;;;;;;86.67;23.63;;;-1.10;99.90;;;;;;6230535;22;20057;-90
2022/12/10 23:34:39;;;;;;;83.70;22.67;;;-1.80;99.90;;;;;;6274904;22;20019;-90
2022/12/10 23:37:31;;;;;;;86.80;27.63;;;-2.10;99.90;;;;;;6242091;23;20020;-90
2022/12/10 23:47:26;;;;;;;81.73;20.57;;;-1.70;99.90;;;;;;6153158;23;20111;-91
2022/12/10 23:50:35;;;;;;;;;;;;;;;;;;;;;
